Aviation Digital Data Service (ADDS)

Output produced by TAFs form (0031 UTC 24 May 2017)
found at http://aviationweather.gov/adds/tafs/
 
KGJT 232327Z 2400/2424 24008KT P6SM FEW250 
     FM240200 06004KT P6SM FEW200 
     FM240800 09008KT P6SM FEW200 
     FM241400 13007KT P6SM SKC 
     FM241800 24008KT P6SM FEW250 
     FM242200 26012G21KT P6SM FEW250